Airfield :
LOGIN :

Register | Disclaimer

   EN    FR    IT 

 










Legend :    VFR   Marginal VFR   IFR   Intensive IFR   Very Intensive IFR
Visi :
Ceiling :
>= 8 km
>= 3000ft
5 to 8 km
1000 to 3000 ft
1500m to 5 km
500 to 1000 ft
800 to 1500m
200 to 500 ft
< 800m
< 200 ft
Symbols :   Thunderstorms  Fog  Heavy snow  Heavy precipitations  Wind > 20 kt
SIGMETs :     Misc.  Thunderstorms  Icing  Turbulence  Mountain Waves  Volcanic Ashes






- Airport Elevation : 396 ft


LFOZ - Orléans St Denis

CURRENT METAR :
  • 110330Z AUTO 34008KT 5000 BR BKN005/// OVC015/// ///TCU 08/07 Q1008

EXPIRED METARs :
  • 110300Z AUTO 35007KT 320V020 7000 -DZ SCT008 OVC013 08/07 Q1008
  • 110230Z AUTO 34007KT 320V020 7000 BKN006 OVC012 08/07 Q1008
  • 110200Z AUTO 02005KT 330V070 8000 -RA SCT006/// BKN012/// OVC070/// ///TCU 08/07 Q1008
  • 110130Z AUTO 36005KT 340V040 9000 DZ OVC004/// ///TCU 08/08 Q1008
  • 110100Z AUTO 34007KT 320V040 9999 OVC006/// ///TCU 09/08 Q1008

TAF N/A



MET'MAP, your aeronautical weather chart ! - Copyright ORBIFLY December 2007 - Disclaimer

ORBIFLY MET'MAP TEAM :

Programming & Development : Alexandra Zaïnal
Concept & original design : Baudouin d'Aumeries
Assistance for programming : Marc-Olivier Méhu
Technical & hardware support : Manuel Goepfert

Contact : metmap@orbifly.com




SOURCES & CREDITS :

   NOAA